| time (UTC) | temp C | wind direction | speed KPH | gust KPH | rain 1hr cm | rain 24hr cm | rain mn cm | humidity % | barometer mb |
| 20260906073041 | 21 | 360 | 0.0 | 0.0 | 0.00 | 0.05 | 0.00 | 99 | 1011.8 |
| 20260906071540 | 21 | 360 | 0.0 | 0.0 | 0.00 | 0.05 | 0.00 | 99 | 1011.9 |
| 20260906070039 | 21 | 360 | 0.0 | 0.0 | 0.00 | 0.05 | 0.00 | 99 | 1011.8 |
| 20260906064536 | 21 | 360 | 0.0 | 0.0 | 0.00 | 0.05 | 0.00 | 99 | 1012.0 |
| 20260906063034 | 21 | 360 | 0.0 | 0.0 | 0.00 | 0.05 | 0.00 | 99 | 1012.3 |
| 20260906061531 | 21 | 360 | 0.0 | 0.0 | 0.00 | 0.05 | 0.00 | 99 | 1012.6 |
| 20260906060030 | 21 | 360 | 0.0 | 0.0 | 0.00 | 0.05 | 0.00 | 99 | 1012.9 |
| 20260906054529 | 21 | 360 | 0.0 | 0.0 | 0.00 | 0.05 | 0.00 | 99 | 1012.9 |
| 20260906053027 | 21 | 360 | 0.0 | 0.0 | 0.00 | 0.05 | 0.00 | 99 | 1013.3 |
| 20260906051527 | 21 | 360 | 0.0 | 0.0 | 0.00 | 0.05 | 0.00 | 99 | 1013.4 |
| 20260906050023 | 22 | 360 | 0.0 | 0.0 | 0.00 | 0.05 | 0.00 | 99 | 1013.4 |
| 20260906044522 | 22 | 360 | 0.0 | 0.0 | 0.00 | 0.05 | 0.00 | 99 | 1013.3 |
| 20260906043029 | 22 | 360 | 0.0 | 0.0 | 0.00 | 0.05 | 0.00 | 99 | 1013.3 |
| 20260906041520 | 22 | 360 | 0.0 | 0.0 | 0.00 | 0.05 | 0.00 | 99 | 1013.3 |
| 20260906040018 | 22 | 360 | 0.0 | 0.0 | 0.00 | 0.05 | 0.00 | 99 | 1013.2 |
| 20260906034617 | 22 | 360 | 0.0 | 0.0 | 0.00 | 0.05 | 0.05 | 98 | 1013.2 |
| 20260906033018 | 22 | 360 | 0.0 | 0.0 | 0.00 | 0.05 | 0.05 | 98 | 1013.2 |
| 20260906031524 | 22 | 360 | 0.0 | 0.0 | 0.00 | 0.05 | 0.05 | 98 | 1013.2 |
| 20260906030014 | 22 | 360 | 0.0 | 0.0 | 0.00 | 0.05 | 0.05 | 98 | 1013.2 |
| 20260906024514 | 22 | 360 | 0.0 | 0.0 | 0.00 | 0.05 | 0.05 | 98 | 1013.1 |
| 20260906023014 | 22 | 360 | 0.0 | 0.0 | 0.00 | 0.05 | 0.05 | 97 | 1013.2 |
| 20260906021514 | 22 | 360 | 0.0 | 0.0 | 0.00 | 0.05 | 0.05 | 97 | 1013.3 |
| 20260906020013 | 22 | 360 | 0.0 | 0.0 | 0.00 | 0.05 | 0.05 | 97 | 1013.3 |
| 20260906014514 | 23 | 360 | 0.0 | 0.0 | 0.00 | 0.05 | 0.05 | 97 | 1013.3 |
| 20260906013012 | 23 | 360 | 0.0 | 0.0 | 0.00 | 0.05 | 0.05 | 96 | 1013.3 |
| 20260906011511 | 23 | 360 | 0.0 | 0.0 | 0.00 | 0.05 | 0.05 | 96 | 1013.1 |
| 20260906010010 | 23 | 360 | 0.0 | 0.0 | 0.00 | 0.05 | 0.05 | 96 | 1012.7 |
| 20260906004509 | 23 | 360 | 0.0 | 0.0 | 0.00 | 0.05 | 0.05 | 94 | 1012.3 |
| 20260906003008 | 23 | 360 | 0.0 | 0.0 | 0.00 | 0.05 | 0.05 | 94 | 1012.2 |
| 20260906001507 | 24 | 360 | 0.0 | 0.0 | 0.00 | 0.05 | 0.05 | 93 | 1012.4 |
| 20260906000009 | 25 | 360 | 0.0 | 0.0 | 0.00 | 0.05 | 0.05 | 91 | 1012.4 |
| 20260905234506 | 25 | 360 | 0.0 | 0.0 | 0.00 | 0.05 | 0.05 | 90 | 1012.2 |
| 20260905233005 | 25 | 360 | 0.0 | 0.0 | 0.00 | 0.05 | 0.05 | 89 | 1012.1 |
| 20260905231512 | 25 | 360 | 0.0 | 0.0 | 0.00 | 0.05 | 0.05 | 89 | 1012.0 |
| 20260905230004 | 26 | 360 | 0.0 | 0.0 | 0.00 | 0.05 | 0.05 | 89 | 1012.5 |
| 20260905224505 | 26 | 360 | 0.0 | 0.0 | 0.00 | 0.05 | 0.05 | 84 | 1012.3 |
| 20260905223006 | 26 | 360 | 0.0 | 0.0 | 0.00 | 0.05 | 0.05 | 84 | 1012.2 |
| 20260905221502 | 26 | 360 | 0.0 | 0.0 | 0.00 | 0.05 | 0.05 | 87 | 1011.9 |
| 20260905220002 | 25 | 360 | 0.0 | 0.0 | 0.00 | 0.05 | 0.05 | 88 | 1011.5 |
| 20260905214507 | 25 | 360 | 0.0 | 0.0 | 0.00 | 0.05 | 0.05 | 90 | 1011.5 |
| 20260905213001 | 24 | 360 | 0.0 | 0.0 | 0.00 | 0.05 | 0.05 | 91 | 1011.7 |
| 20260905211501 | 23 | 360 | 0.0 | 0.0 | 0.00 | 0.05 | 0.05 | 94 | 1012.3 |
| 20260905210117 | 23 | 360 | 0.0 | 0.0 | 0.05 | 0.05 | 0.05 | 92 | 1012.4 |
| 20260905204601 | 23 | 360 | 0.0 | 0.0 | 0.05 | 0.05 | 0.05 | 92 | 1012.9 |
| 20260905203101 | 23 | 360 | 0.0 | 0.0 | 0.05 | 0.05 | 0.05 | 89 | 1012.8 |
| 20260905201558 | 26 | 360 | 0.0 | 0.0 | 0.05 | 0.05 | 0.05 | 79 | 1012.4 |
| 20260905200119 | 30 | 360 | 0.0 | 0.0 | 0.00 | 0.00 | 0.00 | 62 | 1011.9 |
| 20260905194557 | 36 | 360 | 0.0 | 0.0 | 0.00 | 0.00 | 0.00 | 54 | 1011.3 |
| 20260905193056 | 36 | 360 | 0.0 | 0.0 | 0.00 | 0.00 | 0.00 | 53 | 1011.3 |
| 20260905191555 | 36 | 360 | 0.0 | 0.0 | 0.00 | 0.00 | 0.00 | 52 | 1011.4 |
| 20260905190055 | 36 | 360 | 0.0 | 0.0 | 0.00 | 0.00 | 0.00 | 54 | 1011.4 |
| 20260905184558 | 35 | 360 | 0.0 | 0.0 | 0.00 | 0.00 | 0.00 | 55 | 1011.5 |
| 20260905183048 | 35 | 360 | 0.0 | 0.0 | 0.00 | 0.00 | 0.00 | 56 | 1011.9 |
| 20260905181547 | 36 | 360 | 0.0 | 0.0 | 0.00 | 0.00 | 0.00 | 55 | 1012.2 |
| 20260905180043 | 35 | 360 | 0.0 | 0.0 | 0.00 | 0.00 | 0.00 | 58 | 1012.5 |
| 20260905174538 | 34 | 360 | 0.0 | 0.0 | 0.00 | 0.00 | 0.00 | 59 | 1012.9 |
| 20260905173045 | 35 | 360 | 0.0 | 0.0 | 0.00 | 0.00 | 0.00 | 60 | 1012.9 |
| 20260905171537 | 34 | 360 | 0.0 | 0.0 | 0.00 | 0.00 | 0.00 | 62 | 1013.0 |
| 20260905170032 | 34 | 360 | 0.0 | 0.0 | 0.00 | 0.00 | 0.00 | 64 | 1013.4 |
| 20260905164529 | 34 | 360 | 0.0 | 0.0 | 0.00 | 0.00 | 0.00 | 62 | 1013.7 |
| 20260905163024 | 33 | 360 | 0.0 | 0.0 | 0.00 | 0.00 | 0.00 | 68 | 1014.0 |
| 20260905161522 | 33 | 360 | 0.0 | 0.0 | 0.00 | 0.00 | 0.00 | 68 | 1014.1 |
| 20260905160019 | 32 | 360 | 0.0 | 0.0 | 0.00 | 0.00 | 0.00 | 68 | 1014.2 |
| 20260905154517 | 32 | 360 | 0.0 | 0.0 | 0.00 | 0.00 | 0.00 | 72 | 1014.2 |
| 20260905153025 | 31 | 360 | 0.0 | 0.0 | 0.00 | 0.00 | 0.00 | 71 | 1014.5 |
| 20260905151513 | 31 | 360 | 0.0 | 0.0 | 0.00 | 0.00 | 0.00 | 75 | 1014.5 |
| 20260905150019 | 31 | 360 | 0.0 | 0.0 | 0.00 | 0.00 | 0.00 | 78 | 1014.6 |
| 20260905144512 | 30 | 360 | 0.0 | 0.0 | 0.00 | 0.00 | 0.00 | 81 | 1014.7 |
| 20260905143005 | 28 | 360 | 0.0 | 0.0 | 0.00 | 0.00 | 0.00 | 84 | 1014.9 |
| 20260905141600 | 27 | 360 | 0.0 | 0.0 | 0.00 | 0.00 | 0.00 | 87 | 1014.9 |
| 20260905140056 | 27 | 360 | 0.0 | 0.0 | 0.00 | 0.00 | 0.00 | 88 | 1014.9 |
| 20260905134554 | 26 | 360 | 0.0 | 0.0 | 0.00 | 0.00 | 0.00 | 92 | 1014.9 |
| 20260905133048 | 25 | 360 | 0.0 | 0.0 | 0.00 | 0.00 | 0.00 | 96 | 1015.0 |
| 20260905131553 | 25 | 360 | 0.0 | 0.0 | 0.00 | 0.00 | 0.00 | 99 | 1015.0 |
| 20260905130042 | 23 | 360 | 0.0 | 0.0 | 0.00 | 0.00 | 0.00 | 100 | 1015.2 |
| 20260905124542 | 23 | 360 | 0.0 | 0.0 | 0.00 | 0.00 | 0.00 | 100 | 1015.2 |
| 20260905123101 | 22 | 360 | 0.0 | 0.0 | 0.00 | 0.00 | 0.00 | 100 | 1015.1 |
| 20260905121540 | 22 | 360 | 0.0 | 0.0 | 0.00 | 0.00 | 0.00 | 100 | 1014.9 |
| 20260905120040 | 22 | 360 | 0.0 | 0.0 | 0.00 | 0.00 | 0.00 | 100 | 1014.9 |
| 20260905114543 | 22 | 360 | 0.0 | 0.0 | 0.00 | 0.00 | 0.00 | 99 | 1014.7 |
| 20260905113039 | 22 | 360 | 0.0 | 0.0 | 0.00 | 0.00 | 0.00 | 99 | 1014.6 |
| 20260905111538 | 21 | 360 | 0.0 | 0.0 | 0.00 | 0.00 | 0.00 | 99 | 1014.4 |
| 20260905110037 | 22 | 360 | 0.0 | 0.0 | 0.00 | 0.00 | 0.00 | 99 | 1014.3 |
| 20260905104537 | 22 | 360 | 0.0 | 0.0 | 0.00 | 0.00 | 0.00 | 99 | 1014.3 |
| 20260905103045 | 22 | 360 | 0.0 | 0.0 | 0.00 | 0.00 | 0.00 | 99 | 1014.1 |
| 20260905101535 | 22 | 360 | 0.0 | 0.0 | 0.00 | 0.00 | 0.00 | 99 | 1014.0 |
| 20260905100048 | 22 | 360 | 0.0 | 0.0 | 0.00 | 0.00 | 0.00 | 99 | 1014.0 |
| 20260905094534 | 22 | 360 | 0.0 | 0.0 | 0.00 | 0.00 | 0.00 | 99 | 1014.0 |
| 20260905093032 | 22 | 360 | 0.0 | 0.0 | 0.00 | 0.00 | 0.00 | 99 | 1014.1 |
| 20260905091540 | 22 | 360 | 0.0 | 0.0 | 0.00 | 0.00 | 0.00 | 98 | 1014.1 |
| 20260905090028 | 22 | 360 | 0.0 | 0.0 | 0.00 | 0.00 | 0.00 | 98 | 1014.2 |
| 20260905084527 | 22 | 360 | 0.0 | 0.0 | 0.00 | 0.00 | 0.00 | 98 | 1014.2 |
| 20260905083028 | 22 | 360 | 0.0 | 0.0 | 0.00 | 0.00 | 0.00 | 98 | 1014.1 |
| 20260905081526 | 22 | 360 | 0.0 | 0.0 | 0.00 | 0.00 | 0.00 | 98 | 1014.2 |
| 20260905080029 | 22 | 360 | 0.0 | 0.0 | 0.00 | 0.00 | 0.00 | 98 | 1014.3 |
| 20260905074521 | 22 | 360 | 0.0 | 0.0 | 0.00 | 0.00 | 0.00 | 97 | 1014.4 |